createdAt,value
2019-02-10T00:03:29.295Z,7.47
2019-02-10T00:08:25.021Z,7.20
2019-02-10T00:13:22.664Z,5.83
2019-02-10T00:18:18.544Z,4.37
2019-02-10T00:23:14.258Z,5.17
2019-02-10T00:28:09.925Z,7.47
2019-02-10T00:33:05.629Z,7.00
2019-02-10T00:38:01.329Z,7.73
2019-02-10T00:42:57.027Z,5.30
2019-02-10T00:47:52.743Z,6.03
2019-02-10T00:52:48.715Z,7.00
2019-02-10T00:57:44.495Z,6.03
2019-02-10T01:02:40.246Z,6.60
2019-02-10T01:07:35.977Z,4.07
2019-02-10T01:12:31.777Z,10.03
2019-02-10T01:17:27.591Z,8.63
2019-02-10T01:22:23.305Z,6.50
2019-02-10T01:27:19.025Z,5.10
2019-02-10T01:32:14.991Z,6.37
2019-02-10T01:37:10.686Z,7.20
2019-02-10T01:42:06.503Z,5.33
2019-02-10T01:47:02.311Z,7.23
2019-02-10T01:51:58.149Z,6.33
2019-02-10T01:56:53.806Z,7.80
2019-02-10T02:01:49.523Z,8.17
2019-02-10T02:06:45.226Z,6.60
2019-02-10T02:11:40.921Z,3.93
2019-02-10T02:16:36.665Z,5.80
2019-02-10T02:21:32.626Z,4.60
2019-02-10T02:26:28.361Z,4.20
2019-02-10T02:31:24.091Z,6.63
2019-02-10T02:36:19.848Z,4.63
2019-02-10T02:41:15.581Z,4.87
2019-02-10T02:46:11.270Z,4.80
2019-02-10T02:51:07.079Z,5.27
2019-02-10T02:56:02.799Z,4.87
2019-02-10T03:00:58.508Z,6.40
2019-02-10T03:05:54.219Z,8.43
2019-02-10T03:10:49.945Z,6.63
2019-02-10T03:15:45.675Z,4.03
2019-02-10T03:20:41.412Z,6.17
2019-02-10T03:25:37.387Z,5.23
2019-02-10T03:30:33.092Z,5.47
2019-02-10T03:35:28.796Z,5.03
2019-02-10T03:40:24.501Z,5.03
2019-02-10T03:45:20.191Z,4.20
2019-02-10T03:50:15.895Z,7.50
2019-02-10T03:55:11.709Z,5.73
2019-02-10T04:00:09.253Z,4.13
2019-02-10T04:05:05.293Z,5.30
2019-02-10T04:10:01.097Z,3.37
2019-02-10T04:14:56.851Z,4.30
2019-02-10T04:19:52.532Z,3.93
2019-02-10T04:24:48.247Z,3.20
2019-02-10T04:29:43.971Z,3.60
2019-02-10T04:34:39.647Z,4.90
2019-02-10T04:39:35.361Z,2.90
2019-02-10T04:44:31.063Z,4.47
2019-02-10T04:49:26.784Z,3.77
2019-02-10T04:54:22.499Z,4.37
2019-02-10T04:59:18.311Z,4.60
2019-02-10T05:04:14.002Z,2.63
2019-02-10T05:09:09.741Z,2.93
2019-02-10T05:14:05.505Z,3.07
2019-02-10T05:19:01.248Z,3.97
2019-02-10T05:24:03.271Z,2.30
2019-02-10T05:28:54.613Z,4.47
2019-02-10T05:33:50.288Z,5.17
2019-02-10T05:38:46.233Z,2.73
2019-02-10T05:43:42.203Z,3.00
2019-02-10T05:48:37.915Z,3.50
2019-02-10T05:53:33.601Z,4.73
2019-02-10T05:58:29.306Z,2.80
2019-02-10T06:03:25.027Z,4.03
2019-02-10T06:08:20.725Z,4.20
2019-02-10T06:13:16.449Z,2.13
2019-02-10T06:18:12.291Z,2.73
2019-02-10T06:23:07.964Z,2.27
2019-02-10T06:28:03.941Z,2.57
2019-02-10T06:32:59.636Z,3.20
2019-02-10T06:37:55.379Z,2.57
2019-02-10T06:42:51.046Z,4.07
2019-02-10T06:47:46.827Z,2.83
2019-02-10T06:52:42.804Z,3.20
2019-02-10T06:57:38.487Z,2.17
2019-02-10T07:02:40.825Z,2.10
2019-02-10T07:07:36.766Z,2.47
2019-02-10T07:12:48.375Z,1.93
2019-02-10T07:17:44.879Z,2.00
2019-02-10T07:22:42.557Z,2.43
2019-02-10T07:27:38.249Z,1.80
2019-02-10T07:32:38.681Z,3.23
2019-02-10T07:37:36.290Z,2.27
2019-02-10T07:42:33.915Z,2.10
2019-02-10T07:47:48.009Z,2.97
2019-02-10T07:52:48.464Z,1.50
2019-02-10T07:57:51.913Z,1.50
2019-02-10T08:02:49.506Z,2.37
2019-02-10T08:07:50.145Z,2.00
2019-02-10T08:12:48.291Z,3.40
2019-02-10T08:17:58.203Z,1.90
2019-02-10T08:22:55.913Z,1.27
2019-02-10T08:27:59.812Z,4.03
2019-02-10T08:33:00.191Z,3.03
2019-02-10T08:37:57.765Z,2.33
2019-02-10T08:43:13.311Z,2.70
2019-02-10T08:48:19.683Z,1.93
2019-02-10T08:53:17.293Z,3.87
2019-02-10T08:58:13.077Z,1.63
2019-02-10T09:03:08.878Z,1.27
2019-02-10T09:08:04.569Z,4.27
2019-02-10T09:13:00.309Z,2.00
2019-02-10T09:17:56.143Z,2.67
2019-02-10T09:22:51.847Z,2.10
2019-02-10T09:27:47.528Z,1.80
2019-02-10T09:32:43.622Z,1.60
2019-02-10T09:37:39.449Z,1.30
2019-02-10T09:42:35.157Z,1.97
2019-02-10T09:47:30.864Z,1.60
2019-02-10T09:52:26.605Z,1.43
2019-02-10T09:57:22.368Z,4.47
2019-02-10T10:02:18.363Z,3.33
2019-02-10T10:07:14.099Z,2.10
2019-02-10T10:12:09.910Z,1.50
2019-02-10T10:17:05.659Z,1.97
2019-02-10T10:22:01.329Z,2.20
2019-02-10T10:26:57.131Z,2.20
2019-02-10T10:31:52.850Z,1.27
2019-02-10T10:36:48.559Z,1.47
2019-02-10T10:41:44.331Z,1.47
2019-02-10T10:46:40.040Z,1.53
2019-02-10T10:51:36.000Z,1.10
2019-02-10T10:56:31.701Z,1.90
2019-02-10T11:01:27.427Z,1.43
2019-02-10T11:06:23.111Z,1.43
2019-02-10T11:11:18.798Z,1.47
2019-02-10T11:16:14.547Z,3.03
2019-02-10T11:21:10.391Z,1.80
2019-02-10T11:26:06.308Z,2.47
2019-02-10T11:31:02.040Z,2.43
2019-02-10T11:35:58.014Z,4.87
2019-02-10T11:40:53.715Z,1.80
2019-02-10T11:45:49.418Z,2.07
2019-02-10T11:50:45.427Z,1.87
2019-02-10T11:55:41.147Z,1.33
2019-02-10T12:00:36.841Z,1.23
2019-02-10T12:05:32.644Z,1.67
2019-02-10T12:10:28.380Z,1.23
2019-02-10T12:15:24.046Z,1.60
2019-02-10T12:20:19.782Z,1.70
2019-02-10T12:25:15.802Z,1.53
2019-02-10T12:30:13.403Z,1.77
2019-02-10T12:35:09.712Z,1.70
2019-02-10T12:40:06.411Z,3.57
2019-02-10T12:45:03.330Z,1.60
2019-02-10T12:49:59.043Z,1.77
2019-02-10T12:54:54.755Z,8.83
2019-02-10T12:59:50.472Z,2.13
2019-02-10T13:04:46.505Z,1.70
2019-02-10T13:09:42.231Z,2.43
2019-02-10T13:14:39.037Z,1.53
2019-02-10T13:19:34.784Z,1.50
2019-02-10T13:24:30.508Z,2.47
2019-02-10T13:29:26.185Z,2.17
2019-02-10T13:34:21.922Z,1.70
2019-02-10T13:39:17.757Z,2.33
2019-02-10T13:44:13.449Z,2.27
2019-02-10T13:49:09.273Z,2.03
2019-02-10T13:54:05.237Z,1.83
2019-02-10T13:59:00.948Z,3.97
2019-02-10T14:03:56.652Z,4.60
2019-02-10T14:08:52.381Z,3.83
2019-02-10T14:13:48.456Z,1.70
2019-02-10T14:18:44.181Z,5.77
2019-02-10T14:23:40.011Z,2.33
2019-02-10T14:28:35.791Z,5.50
2019-02-10T14:33:38.633Z,2.37
2019-02-10T14:38:36.019Z,5.10
2019-02-10T14:43:26.917Z,1.77
2019-02-10T14:48:22.639Z,2.60
2019-02-10T14:53:18.610Z,2.80
2019-02-10T14:58:14.361Z,3.80
2019-02-10T15:03:10.072Z,3.30
2019-02-10T15:08:05.799Z,4.17
2019-02-10T15:13:01.529Z,2.47
2019-02-10T15:17:57.278Z,2.93
2019-02-10T15:22:52.965Z,4.43
2019-02-10T15:27:48.725Z,5.97
2019-02-10T15:32:44.510Z,4.27
2019-02-10T15:37:40.212Z,5.63
2019-02-10T15:42:35.929Z,3.87
2019-02-10T15:47:31.904Z,4.00
2019-02-10T15:52:27.628Z,2.80
2019-02-10T15:57:23.340Z,3.13
2019-02-10T16:02:19.148Z,4.53
2019-02-10T16:07:14.857Z,3.00
2019-02-10T16:12:10.653Z,3.67
2019-02-10T16:17:06.384Z,3.73
2019-02-10T16:22:02.219Z,3.40
2019-02-10T16:26:57.927Z,2.00
2019-02-10T16:31:53.903Z,3.10
2019-02-10T16:36:49.609Z,2.30
2019-02-10T16:41:45.299Z,3.50
2019-02-10T16:46:41.002Z,2.23
2019-02-10T16:51:36.718Z,2.03
2019-02-10T16:56:32.404Z,3.17
2019-02-10T17:01:28.133Z,2.70
2019-02-10T17:06:23.839Z,1.90
2019-02-10T17:11:19.533Z,1.53
2019-02-10T17:16:15.244Z,1.70
2019-02-10T17:21:10.991Z,0.53
2019-02-10T17:26:06.693Z,0.90
2019-02-10T17:31:02.417Z,1.20
2019-02-10T17:35:58.127Z,1.00
2019-02-10T17:40:58.755Z,1.00
2019-02-10T17:45:54.433Z,0.93
2019-02-10T17:50:50.407Z,1.00
2019-02-10T17:55:46.379Z,2.00
2019-02-10T18:00:46.809Z,1.30
2019-02-10T18:05:42.509Z,2.10
2019-02-10T18:10:38.243Z,2.03
2019-02-10T18:15:50.607Z,1.10
2019-02-10T18:21:04.792Z,3.80
2019-02-10T18:26:02.484Z,3.00
2019-02-10T18:31:05.753Z,1.47
2019-02-10T18:36:06.009Z,2.70
2019-02-10T18:41:03.632Z,1.33
2019-02-10T18:46:01.265Z,1.27
2019-02-10T18:51:01.503Z,1.47
2019-02-10T18:55:59.235Z,1.20
2019-02-10T19:00:57.095Z,1.00
2019-02-10T19:06:11.164Z,0.70
2019-02-10T19:11:08.802Z,1.10
2019-02-10T19:16:12.153Z,0.67
2019-02-10T19:21:12.491Z,0.80
2019-02-10T19:26:22.044Z,0.80
2019-02-10T19:31:19.669Z,0.73
2019-02-10T19:36:35.308Z,0.70
2019-02-10T19:41:32.891Z,0.93
2019-02-10T19:46:36.531Z,1.07
2019-02-10T19:51:34.178Z,0.63
2019-02-10T19:56:48.275Z,1.27
2019-02-10T20:01:48.600Z,0.70
2019-02-10T20:06:49.057Z,1.00
2019-02-10T20:12:04.355Z,0.80
2019-02-10T20:17:18.407Z,0.83
2019-02-10T20:22:18.692Z,1.97
2019-02-10T20:27:22.380Z,5.93
2019-02-10T20:32:28.950Z,0.40
2019-02-10T20:37:44.638Z,2.23
2019-02-10T20:42:42.253Z,2.00
2019-02-10T20:47:40.004Z,1.53
2019-02-10T20:52:45.942Z,0.60
2019-02-10T20:57:39.953Z,0.83
2019-02-10T21:02:37.554Z,0.80
2019-02-10T21:07:35.205Z,0.70
2019-02-10T21:12:49.332Z,4.57
2019-02-10T21:17:55.763Z,0.90
2019-02-10T21:22:53.399Z,0.97
2019-02-10T21:27:51.365Z,0.80
2019-02-10T21:33:04.064Z,0.93
2019-02-10T21:38:07.456Z,0.63
2019-02-10T21:43:14.002Z,1.43
2019-02-10T21:48:14.601Z,0.90
2019-02-10T21:53:10.266Z,1.17
2019-02-10T21:58:06.000Z,1.30
2019-02-10T22:03:01.931Z,0.70
2019-02-10T22:07:57.701Z,0.53
2019-02-10T22:12:53.425Z,0.60
2019-02-10T22:17:49.141Z,0.43
2019-02-10T22:22:44.891Z,0.77
2019-02-10T22:27:40.609Z,1.13
2019-02-10T22:32:36.311Z,0.60
2019-02-10T22:37:32.022Z,0.40
2019-02-10T22:42:27.743Z,2.53
2019-02-10T22:47:23.448Z,1.40
2019-02-10T22:52:19.443Z,1.00
2019-02-10T22:57:15.125Z,1.63
2019-02-10T23:02:11.033Z,1.53
2019-02-10T23:07:06.755Z,0.87
2019-02-10T23:12:02.629Z,1.37
2019-02-10T23:16:58.334Z,0.73
2019-02-10T23:21:54.305Z,0.43
2019-02-10T23:26:50.095Z,0.30
2019-02-10T23:31:45.816Z,0.97
2019-02-10T23:36:41.744Z,0.87
2019-02-10T23:41:37.441Z,1.40
2019-02-10T23:46:33.147Z,1.60
2019-02-10T23:51:28.861Z,0.30
2019-02-10T23:56:24.563Z,1.03
